sensor_id;sensor_type;location;lat;lon;timestamp;P1;durP1;ratioP1;P2;durP2;ratioP2
7883;SDS011;3987;51.458;7.238;2023-09-08T00:00:46;7.73;;;7.30;;
7883;SDS011;3987;51.458;7.238;2023-09-08T00:15:47;8.70;;;8.10;;
7883;SDS011;3987;51.458;7.238;2023-09-08T00:30:47;9.37;;;8.47;;
7883;SDS011;3987;51.458;7.238;2023-09-08T00:45:47;9.17;;;8.53;;
7883;SDS011;3987;51.458;7.238;2023-09-08T01:00:48;8.47;;;7.97;;
7883;SDS011;3987;51.458;7.238;2023-09-08T01:15:49;9.03;;;8.40;;
7883;SDS011;3987;51.458;7.238;2023-09-08T01:30:51;8.47;;;8.13;;
7883;SDS011;3987;51.458;7.238;2023-09-08T01:45:51;9.10;;;8.40;;
7883;SDS011;3987;51.458;7.238;2023-09-08T02:00:52;12.43;;;11.33;;
7883;SDS011;3987;51.458;7.238;2023-09-08T02:15:52;12.20;;;11.10;;
7883;SDS011;3987;51.458;7.238;2023-09-08T02:30:53;12.10;;;11.00;;
7883;SDS011;3987;51.458;7.238;2023-09-08T02:45:54;14.20;;;12.77;;
7883;SDS011;3987;51.458;7.238;2023-09-08T03:00:55;15.50;;;12.83;;
7883;SDS011;3987;51.458;7.238;2023-09-08T03:15:56;16.50;;;13.53;;
7883;SDS011;3987;51.458;7.238;2023-09-08T03:30:57;14.30;;;13.00;;
7883;SDS011;3987;51.458;7.238;2023-09-08T03:45:57;15.37;;;13.80;;
7883;SDS011;3987;51.458;7.238;2023-09-08T04:00:58;17.10;;;14.10;;
7883;SDS011;3987;51.458;7.238;2023-09-08T04:15:58;15.60;;;14.00;;
7883;SDS011;3987;51.458;7.238;2023-09-08T04:30:59;13.53;;;12.10;;
7883;SDS011;3987;51.458;7.238;2023-09-08T04:45:59;12.63;;;11.47;;
7883;SDS011;3987;51.458;7.238;2023-09-08T05:01:02;12.73;;;11.83;;
7883;SDS011;3987;51.458;7.238;2023-09-08T05:16:03;20.60;;;17.10;;
7883;SDS011;3987;51.458;7.238;2023-09-08T05:31:12;17.20;;;15.40;;
7883;SDS011;3987;51.458;7.238;2023-09-08T05:46:13;20.17;;;16.13;;
7883;SDS011;3987;51.458;7.238;2023-09-08T06:01:15;18.63;;;15.77;;
7883;SDS011;3987;51.458;7.238;2023-09-08T06:16:16;16.93;;;14.00;;
7883;SDS011;3987;51.458;7.238;2023-09-08T06:31:16;15.40;;;12.43;;
7883;SDS011;3987;51.458;7.238;2023-09-08T06:46:18;9.10;;;8.40;;
7883;SDS011;3987;51.458;7.238;2023-09-08T07:01:19;7.50;;;7.20;;
7883;SDS011;3987;51.458;7.238;2023-09-08T07:16:19;6.13;;;5.63;;
7883;SDS011;3987;51.458;7.238;2023-09-08T07:31:20;6.17;;;5.93;;
7883;SDS011;3987;51.458;7.238;2023-09-08T07:46:25;5.67;;;5.47;;
7883;SDS011;3987;51.458;7.238;2023-09-08T08:01:29;5.73;;;5.47;;
7883;SDS011;3987;51.458;7.238;2023-09-08T08:16:29;6.07;;;5.83;;
7883;SDS011;3987;51.458;7.238;2023-09-08T08:31:30;5.93;;;5.40;;
7883;SDS011;3987;51.458;7.238;2023-09-08T08:46:30;6.00;;;5.60;;
7883;SDS011;3987;51.458;7.238;2023-09-08T09:01:31;4.37;;;4.27;;
7883;SDS011;3987;51.458;7.238;2023-09-08T09:16:38;5.60;;;4.23;;
7883;SDS011;3987;51.458;7.238;2023-09-08T09:32:01;4.27;;;4.13;;
7883;SDS011;3987;51.458;7.238;2023-09-08T09:47:04;3.70;;;3.60;;
7883;SDS011;3987;51.458;7.238;2023-09-08T10:02:06;3.83;;;3.63;;
7883;SDS011;3987;51.458;7.238;2023-09-08T10:17:12;3.80;;;3.70;;
7883;SDS011;3987;51.458;7.238;2023-09-08T10:32:17;3.90;;;3.70;;
7883;SDS011;3987;51.458;7.238;2023-09-08T10:47:19;3.63;;;3.40;;
7883;SDS011;3987;51.458;7.238;2023-09-08T11:17:39;3.60;;;3.40;;
7883;SDS011;3987;51.458;7.238;2023-09-08T11:32:41;3.47;;;3.27;;
7883;SDS011;3987;51.458;7.238;2023-09-08T11:47:42;3.70;;;3.60;;
7883;SDS011;3987;51.458;7.238;2023-09-08T12:02:44;3.90;;;3.70;;
7883;SDS011;3987;51.458;7.238;2023-09-08T12:17:49;3.80;;;3.70;;
7883;SDS011;3987;51.458;7.238;2023-09-08T12:32:50;3.92;;;3.67;;
7883;SDS011;3987;51.458;7.238;2023-09-08T12:47:51;3.47;;;3.38;;
7883;SDS011;3987;51.458;7.238;2023-09-08T13:02:51;3.15;;;3.15;;
7883;SDS011;3987;51.458;7.238;2023-09-08T13:17:52;3.33;;;3.22;;
7883;SDS011;3987;51.458;7.238;2023-09-08T13:32:52;3.60;;;3.50;;
7883;SDS011;3987;51.458;7.238;2023-09-08T13:47:53;3.17;;;3.08;;
7883;SDS011;3987;51.458;7.238;2023-09-08T14:02:53;3.67;;;3.35;;
7883;SDS011;3987;51.458;7.238;2023-09-08T14:17:54;8.02;;;7.53;;
7883;SDS011;3987;51.458;7.238;2023-09-08T14:32:54;4.07;;;3.83;;
7883;SDS011;3987;51.458;7.238;2023-09-08T14:47:55;4.10;;;3.90;;
7883;SDS011;3987;51.458;7.238;2023-09-08T15:02:55;4.05;;;3.80;;
7883;SDS011;3987;51.458;7.238;2023-09-08T15:17:55;4.00;;;3.90;;
7883;SDS011;3987;51.458;7.238;2023-09-08T15:32:56;4.18;;;3.80;;
7883;SDS011;3987;51.458;7.238;2023-09-08T15:47:57;4.30;;;3.80;;
7883;SDS011;3987;51.458;7.238;2023-09-08T16:02:57;4.00;;;3.77;;
7883;SDS011;3987;51.458;7.238;2023-09-08T16:17:58;4.13;;;4.03;;
7883;SDS011;3987;51.458;7.238;2023-09-08T16:33:01;4.00;;;3.90;;
7883;SDS011;3987;51.458;7.238;2023-09-08T16:48:01;4.70;;;4.43;;
7883;SDS011;3987;51.458;7.238;2023-09-08T17:03:02;3.90;;;3.80;;
7883;SDS011;3987;51.458;7.238;2023-09-08T17:18:03;4.37;;;4.20;;
7883;SDS011;3987;51.458;7.238;2023-09-08T17:33:03;5.50;;;5.00;;
7883;SDS011;3987;51.458;7.238;2023-09-08T17:48:04;5.20;;;4.90;;
7883;SDS011;3987;51.458;7.238;2023-09-08T18:03:05;5.93;;;5.53;;
7883;SDS011;3987;51.458;7.238;2023-09-08T18:18:05;6.33;;;5.80;;
7883;SDS011;3987;51.458;7.238;2023-09-08T18:33:05;6.30;;;5.80;;
7883;SDS011;3987;51.458;7.238;2023-09-08T18:48:06;6.70;;;6.50;;
7883;SDS011;3987;51.458;7.238;2023-09-08T19:03:06;7.00;;;6.70;;
7883;SDS011;3987;51.458;7.238;2023-09-08T19:18:07;7.07;;;6.87;;
7883;SDS011;3987;51.458;7.238;2023-09-08T19:33:07;6.97;;;6.67;;
7883;SDS011;3987;51.458;7.238;2023-09-08T19:48:08;7.53;;;7.13;;
7883;SDS011;3987;51.458;7.238;2023-09-08T20:03:08;7.40;;;6.90;;
7883;SDS011;3987;51.458;7.238;2023-09-08T20:18:09;8.23;;;7.63;;
7883;SDS011;3987;51.458;7.238;2023-09-08T20:33:09;7.93;;;7.50;;
7883;SDS011;3987;51.458;7.238;2023-09-08T20:48:11;7.63;;;7.33;;
7883;SDS011;3987;51.458;7.238;2023-09-08T21:03:12;9.17;;;8.20;;
7883;SDS011;3987;51.458;7.238;2023-09-08T21:18:13;7.67;;;7.37;;
7883;SDS011;3987;51.458;7.238;2023-09-08T21:33:13;7.63;;;7.23;;
7883;SDS011;3987;51.458;7.238;2023-09-08T21:48:14;6.63;;;6.43;;
7883;SDS011;3987;51.458;7.238;2023-09-08T22:03:14;7.70;;;7.00;;
7883;SDS011;3987;51.458;7.238;2023-09-08T22:18:15;7.27;;;6.87;;
7883;SDS011;3987;51.458;7.238;2023-09-08T22:33:15;7.00;;;6.60;;
7883;SDS011;3987;51.458;7.238;2023-09-08T22:48:15;5.57;;;5.43;;
7883;SDS011;3987;51.458;7.238;2023-09-08T23:03:18;6.13;;;5.80;;
7883;SDS011;3987;51.458;7.238;2023-09-08T23:18:18;5.70;;;5.40;;
7883;SDS011;3987;51.458;7.238;2023-09-08T23:33:19;5.10;;;4.90;;
7883;SDS011;3987;51.458;7.238;2023-09-08T23:48:20;5.73;;;5.63;;
